createdAt,value
2023-06-30T00:00:12.485Z,79.97
2023-06-30T00:03:00.245Z,79.53
2023-06-30T00:05:28.588Z,79.49
2023-06-30T00:07:59.167Z,79.40
2023-06-30T00:10:26.361Z,79.26
2023-06-30T00:12:53.229Z,79.26
2023-06-30T00:15:20.142Z,79.15
2023-06-30T00:17:49.116Z,79.28
2023-06-30T00:20:16.278Z,79.76
2023-06-30T00:22:44.637Z,79.78
2023-06-30T00:25:12.890Z,79.68
2023-06-30T00:27:42.013Z,79.88
2023-06-30T00:30:09.159Z,79.82
2023-06-30T00:32:35.890Z,79.79
2023-06-30T00:35:04.028Z,79.64
2023-06-30T00:37:31.612Z,79.67
2023-06-30T00:39:58.489Z,79.81
2023-06-30T00:42:25.651Z,80.03
2023-06-30T00:44:54.772Z,79.76
2023-06-30T00:47:21.817Z,79.57
2023-06-30T00:49:48.807Z,79.69
2023-06-30T00:52:15.631Z,78.52
2023-06-30T00:54:42.759Z,77.28
2023-06-30T00:57:10.072Z,77.07
2023-06-30T00:59:36.736Z,78.15
2023-06-30T01:02:07.641Z,78.43
2023-06-30T01:05:00.829Z,79.02
2023-06-30T01:07:34.188Z,79.44
2023-06-30T01:10:04.288Z,79.59
2023-06-30T01:12:32.261Z,79.88
2023-06-30T01:15:00.258Z,79.97
2023-06-30T01:17:27.696Z,80.09
2023-06-30T01:19:55.095Z,80.14
2023-06-30T01:22:25.400Z,80.15
2023-06-30T01:24:55.946Z,80.38
2023-06-30T01:27:22.750Z,80.88
2023-06-30T01:29:51.335Z,80.78
2023-06-30T01:32:18.813Z,80.58
2023-06-30T01:34:45.718Z,80.60
2023-06-30T01:37:13.521Z,79.66
2023-06-30T01:39:40.861Z,78.57
2023-06-30T01:42:08.492Z,79.27
2023-06-30T01:44:36.327Z,79.61
2023-06-30T01:47:03.755Z,79.76
2023-06-30T01:49:30.631Z,79.95
2023-06-30T01:51:57.684Z,80.03
2023-06-30T01:54:24.525Z,80.14
2023-06-30T01:56:53.122Z,80.31
2023-06-30T01:59:20.073Z,80.33
2023-06-30T02:01:47.663Z,80.32
2023-06-30T02:04:16.186Z,80.40
2023-06-30T02:06:47.007Z,80.59
2023-06-30T02:09:14.144Z,81.84
2023-06-30T02:11:41.174Z,82.15
2023-06-30T02:14:08.074Z,83.55
2023-06-30T02:16:35.094Z,83.28
2023-06-30T02:19:02.235Z,82.85
2023-06-30T02:21:29.135Z,82.61
2023-06-30T02:23:56.158Z,82.28
2023-06-30T02:26:22.930Z,82.43
2023-06-30T02:28:50.051Z,83.03
2023-06-30T02:31:17.520Z,83.09
2023-06-30T02:33:44.302Z,82.77
2023-06-30T02:36:11.244Z,82.47
2023-06-30T02:38:38.355Z,82.36
2023-06-30T02:41:05.067Z,82.14
2023-06-30T02:43:31.765Z,82.08
2023-06-30T02:45:59.677Z,82.31
2023-06-30T02:48:27.894Z,82.16
2023-06-30T02:50:54.939Z,82.07
2023-06-30T02:53:22.102Z,82.05
2023-06-30T02:55:49.318Z,82.19
2023-06-30T02:58:16.205Z,82.32
2023-06-30T03:00:43.234Z,82.36
2023-06-30T03:03:11.021Z,82.02
2023-06-30T03:05:38.682Z,81.75
2023-06-30T03:08:06.683Z,81.71
2023-06-30T03:10:34.076Z,81.71
2023-06-30T03:13:00.931Z,81.75
2023-06-30T03:15:27.817Z,81.95
2023-06-30T03:17:56.183Z,82.17
2023-06-30T03:20:24.040Z,82.07
2023-06-30T03:22:52.594Z,82.05
2023-06-30T03:25:19.925Z,81.96
2023-06-30T03:27:47.125Z,81.67
2023-06-30T03:30:14.457Z,78.51
2023-06-30T03:32:44.429Z,76.42
2023-06-30T03:35:11.518Z,76.91
2023-06-30T03:37:38.369Z,78.36
2023-06-30T03:40:06.320Z,78.45
2023-06-30T03:42:33.656Z,78.80
2023-06-30T03:45:01.112Z,80.41
2023-06-30T03:47:28.279Z,80.68
2023-06-30T03:49:55.477Z,80.70
2023-06-30T03:52:22.430Z,80.76
2023-06-30T03:54:49.554Z,80.85
2023-06-30T03:57:16.426Z,80.85
2023-06-30T03:59:43.380Z,80.67
2023-06-30T04:02:10.042Z,80.60
2023-06-30T04:04:37.174Z,80.72
2023-06-30T04:07:04.549Z,80.95
2023-06-30T04:09:31.603Z,80.92
2023-06-30T04:11:58.547Z,80.83
2023-06-30T04:14:25.530Z,80.84
2023-06-30T04:16:52.548Z,80.85
2023-06-30T04:19:19.607Z,81.00
2023-06-30T04:21:47.533Z,79.46
2023-06-30T04:24:14.287Z,78.17
2023-06-30T04:26:41.174Z,76.87
2023-06-30T04:29:08.228Z,73.63
2023-06-30T04:31:36.302Z,75.19
2023-06-30T04:34:03.464Z,77.55
2023-06-30T04:36:30.626Z,78.41
2023-06-30T04:38:58.623Z,78.92
2023-06-30T04:41:26.164Z,79.66
2023-06-30T04:43:53.158Z,79.78
2023-06-30T04:46:20.227Z,79.31
2023-06-30T04:48:47.329Z,78.85
2023-06-30T04:51:15.986Z,79.34
2023-06-30T04:53:42.961Z,79.44
2023-06-30T04:56:10.422Z,79.44
2023-06-30T04:58:37.383Z,78.99
2023-06-30T05:01:05.572Z,78.37
2023-06-30T05:03:32.761Z,78.16
2023-06-30T05:05:59.962Z,77.74
2023-06-30T05:08:27.425Z,77.42
2023-06-30T05:10:54.489Z,77.54
2023-06-30T05:13:21.299Z,77.35
2023-06-30T05:15:48.677Z,77.19
2023-06-30T05:18:16.196Z,77.60
2023-06-30T05:20:43.308Z,76.45
2023-06-30T05:23:10.050Z,74.62
2023-06-30T05:25:38.132Z,72.41
2023-06-30T05:28:05.548Z,73.13
2023-06-30T05:31:05.444Z,74.11
2023-06-30T05:33:32.385Z,72.15
2023-06-30T05:35:59.301Z,72.21
2023-06-30T05:38:26.355Z,75.06
2023-06-30T05:40:53.789Z,73.32
2023-06-30T05:43:20.755Z,71.45
2023-06-30T05:45:50.162Z,71.10
2023-06-30T05:48:17.215Z,72.64
2023-06-30T05:50:46.051Z,72.84
2023-06-30T05:53:12.963Z,71.48
2023-06-30T05:55:40.028Z,70.11
2023-06-30T05:58:07.276Z,70.56
2023-06-30T06:00:34.356Z,71.19
2023-06-30T06:03:01.912Z,70.73
2023-06-30T06:05:29.466Z,71.63
2023-06-30T06:07:56.443Z,71.62
2023-06-30T06:10:23.301Z,70.30
2023-06-30T06:12:52.591Z,70.59
2023-06-30T06:15:19.592Z,70.51
2023-06-30T06:17:46.497Z,70.20
2023-06-30T06:20:13.383Z,70.10
2023-06-30T06:22:40.269Z,70.41
2023-06-30T06:25:08.033Z,70.25
2023-06-30T06:27:36.092Z,71.92
2023-06-30T06:30:05.907Z,70.84
2023-06-30T06:32:33.145Z,69.22
2023-06-30T06:35:00.350Z,69.36
2023-06-30T06:37:27.399Z,68.81
2023-06-30T06:39:54.309Z,69.19
2023-06-30T06:42:21.200Z,69.36
2023-06-30T06:44:48.972Z,68.32
2023-06-30T06:47:34.608Z,68.27
2023-06-30T06:50:03.435Z,67.02
2023-06-30T06:52:30.696Z,67.35
2023-06-30T06:54:57.750Z,67.21
2023-06-30T06:57:24.600Z,66.63
2023-06-30T06:59:51.721Z,66.23
2023-06-30T07:02:18.575Z,66.21
2023-06-30T07:04:45.585Z,65.83
2023-06-30T07:07:12.593Z,66.16
2023-06-30T07:09:39.459Z,65.95
2023-06-30T07:12:07.324Z,65.40
2023-06-30T07:14:34.787Z,65.15
2023-06-30T07:17:01.637Z,65.21
2023-06-30T07:19:28.695Z,65.17
2023-06-30T07:21:55.745Z,64.40
2023-06-30T07:24:23.486Z,64.43
2023-06-30T07:26:50.403Z,63.92
2023-06-30T07:29:17.353Z,61.95
2023-06-30T07:31:44.220Z,61.56
2023-06-30T07:34:11.442Z,62.49
2023-06-30T07:36:38.343Z,63.17
2023-06-30T07:39:05.737Z,62.24
2023-06-30T07:41:35.850Z,61.65
2023-06-30T07:44:03.936Z,60.54
2023-06-30T07:46:31.332Z,61.17
2023-06-30T07:48:58.434Z,60.61
2023-06-30T07:51:25.658Z,61.11
2023-06-30T07:53:52.652Z,60.89
2023-06-30T07:56:19.715Z,60.13
2023-06-30T07:58:46.617Z,57.16
2023-06-30T08:01:13.533Z,58.46
2023-06-30T08:03:40.908Z,58.84
2023-06-30T08:06:08.195Z,57.68
2023-06-30T08:08:35.249Z,55.73
2023-06-30T08:11:02.254Z,56.43
2023-06-30T08:13:29.185Z,55.95
2023-06-30T08:15:56.508Z,55.28
2023-06-30T08:18:27.915Z,54.63
2023-06-30T08:20:59.986Z,56.48
2023-06-30T08:23:27.178Z,56.13
2023-06-30T08:25:55.795Z,55.69
2023-06-30T08:28:22.665Z,55.39
2023-06-30T08:30:49.562Z,54.37
2023-06-30T08:33:30.585Z,56.04
2023-06-30T08:36:05.092Z,53.47
2023-06-30T08:38:32.284Z,49.08
2023-06-30T08:41:00.666Z,49.34
2023-06-30T08:43:29.066Z,52.00
2023-06-30T08:45:56.490Z,53.84
2023-06-30T08:48:24.263Z,53.49
2023-06-30T08:50:53.078Z,52.18
2023-06-30T08:53:20.937Z,51.79
2023-06-30T08:55:47.884Z,53.02
2023-06-30T08:58:25.448Z,51.06
2023-06-30T09:00:54.198Z,53.50
2023-06-30T09:03:21.646Z,51.19
2023-06-30T09:05:50.631Z,50.38
2023-06-30T09:08:22.093Z,50.54
2023-06-30T09:10:49.231Z,48.33
2023-06-30T09:13:18.143Z,48.73
2023-06-30T09:15:46.407Z,49.47
2023-06-30T09:18:13.638Z,48.51
2023-06-30T09:20:41.117Z,48.81
2023-06-30T09:23:08.190Z,47.43
2023-06-30T09:25:36.390Z,45.63
2023-06-30T09:28:08.229Z,48.88
2023-06-30T09:30:35.707Z,47.61
2023-06-30T09:33:02.791Z,48.14
2023-06-30T09:35:46.681Z,46.10
2023-06-30T09:38:17.949Z,43.48
2023-06-30T09:40:50.916Z,44.72
2023-06-30T09:43:20.751Z,46.81
2023-06-30T09:45:53.682Z,45.16
2023-06-30T09:48:20.728Z,43.88
2023-06-30T09:50:47.576Z,45.52
2023-06-30T09:53:20.530Z,41.76
2023-06-30T09:55:51.174Z,44.06
2023-06-30T09:58:19.575Z,42.81
2023-06-30T10:00:46.916Z,43.12
2023-06-30T10:03:20.398Z,40.14
2023-06-30T10:05:50.816Z,42.80
2023-06-30T10:08:17.879Z,43.31
2023-06-30T10:10:44.937Z,44.16
2023-06-30T10:13:13.622Z,40.16
2023-06-30T10:15:41.056Z,40.35
2023-06-30T10:18:13.050Z,42.45
2023-06-30T10:20:47.822Z,41.79
2023-06-30T10:23:18.695Z,40.66
2023-06-30T10:25:45.637Z,39.66
2023-06-30T10:28:13.850Z,40.04
2023-06-30T10:30:40.723Z,39.99
2023-06-30T10:33:07.635Z,40.50
2023-06-30T10:35:35.533Z,42.66
2023-06-30T10:38:02.690Z,41.29
2023-06-30T10:40:30.622Z,41.86
2023-06-30T10:42:58.126Z,37.05
2023-06-30T10:45:33.576Z,38.88
2023-06-30T10:48:10.103Z,40.16
2023-06-30T10:50:56.509Z,40.65
2023-06-30T10:53:23.543Z,38.94
2023-06-30T10:55:55.082Z,40.23
2023-06-30T10:58:25.369Z,37.82
2023-06-30T11:01:05.041Z,38.49
2023-06-30T11:03:58.855Z,37.60
2023-06-30T11:06:26.597Z,37.98
2023-06-30T11:09:12.995Z,37.69
2023-06-30T11:11:49.269Z,38.03
2023-06-30T11:14:30.163Z,37.16
2023-06-30T11:17:04.296Z,38.80
2023-06-30T11:19:31.481Z,39.18
2023-06-30T11:22:17.366Z,38.49
2023-06-30T11:24:44.480Z,38.04
2023-06-30T11:27:11.595Z,37.55
2023-06-30T11:29:40.461Z,34.95
2023-06-30T11:32:08.113Z,36.99
2023-06-30T11:34:36.003Z,35.95
2023-06-30T11:37:06.212Z,33.86
2023-06-30T11:39:34.907Z,35.71
2023-06-30T11:42:02.048Z,36.67
2023-06-30T11:44:29.272Z,35.57
2023-06-30T11:46:58.743Z,36.66
2023-06-30T11:49:27.185Z,37.68
2023-06-30T11:51:53.948Z,35.17
2023-06-30T11:54:29.068Z,34.82
2023-06-30T11:56:57.563Z,35.32
2023-06-30T11:59:27.493Z,35.09
2023-06-30T12:01:54.525Z,34.13
2023-06-30T12:04:21.639Z,35.02
2023-06-30T12:06:49.372Z,35.37
2023-06-30T12:09:16.431Z,36.38
2023-06-30T12:11:44.736Z,36.93
2023-06-30T12:14:15.234Z,35.90
2023-06-30T12:16:43.114Z,35.76
2023-06-30T12:19:10.969Z,36.35
2023-06-30T12:21:51.318Z,34.60
2023-06-30T12:24:19.413Z,33.97
2023-06-30T12:26:46.586Z,34.63
2023-06-30T12:29:13.306Z,33.32
2023-06-30T12:31:42.059Z,33.55
2023-06-30T12:34:09.179Z,35.24
2023-06-30T12:36:36.169Z,34.23
2023-06-30T12:39:03.160Z,33.71
2023-06-30T12:41:30.821Z,34.45
2023-06-30T12:43:59.062Z,34.43
2023-06-30T12:46:26.606Z,34.23
2023-06-30T12:48:53.616Z,34.01
2023-06-30T12:51:20.492Z,34.81
2023-06-30T12:53:47.589Z,34.56
2023-06-30T12:56:14.764Z,35.60
2023-06-30T12:58:41.673Z,36.27
2023-06-30T13:01:08.586Z,35.95
2023-06-30T13:03:35.826Z,36.49
2023-06-30T13:06:03.518Z,35.31
2023-06-30T13:08:30.410Z,34.96
2023-06-30T13:10:57.335Z,35.60
2023-06-30T13:13:24.278Z,35.95
2023-06-30T13:15:51.953Z,35.48
2023-06-30T13:18:18.772Z,36.31
2023-06-30T13:20:45.736Z,36.31
2023-06-30T13:23:17.555Z,36.47
2023-06-30T13:25:55.030Z,36.76
2023-06-30T13:28:22.219Z,36.53
2023-06-30T13:30:49.081Z,37.45
2023-06-30T13:33:15.879Z,36.72
2023-06-30T13:35:42.888Z,36.06
2023-06-30T13:38:11.533Z,37.26
2023-06-30T13:40:38.468Z,37.45
2023-06-30T13:43:06.665Z,37.61
2023-06-30T13:45:33.753Z,37.92
2023-06-30T13:48:00.738Z,36.27
2023-06-30T13:50:28.605Z,37.83
2023-06-30T13:52:55.418Z,38.63
2023-06-30T13:55:22.226Z,38.97
2023-06-30T13:57:48.999Z,37.70
2023-06-30T14:00:16.140Z,37.73
2023-06-30T14:02:42.983Z,37.08
2023-06-30T14:05:10.067Z,35.57
2023-06-30T14:07:36.928Z,37.41
2023-06-30T14:10:04.968Z,36.67
2023-06-30T14:12:31.781Z,35.92
2023-06-30T14:14:58.642Z,37.07
2023-06-30T14:17:25.552Z,36.88
2023-06-30T14:19:52.304Z,36.95
2023-06-30T14:22:19.230Z,37.30
2023-06-30T14:24:46.368Z,37.68
2023-06-30T14:27:13.139Z,38.34
2023-06-30T14:29:42.949Z,38.64
2023-06-30T14:32:10.188Z,37.81
2023-06-30T14:34:37.211Z,36.99
2023-06-30T14:37:04.156Z,37.73
2023-06-30T14:39:30.937Z,37.62
2023-06-30T14:42:02.769Z,37.50
2023-06-30T14:44:29.897Z,37.52
2023-06-30T14:46:57.092Z,38.08
2023-06-30T14:49:23.953Z,36.39
2023-06-30T14:51:50.828Z,37.03
2023-06-30T14:54:17.664Z,37.95
2023-06-30T14:56:44.503Z,36.40
2023-06-30T14:59:11.233Z,36.27
2023-06-30T15:01:38.103Z,38.57
2023-06-30T15:04:05.080Z,38.90
2023-06-30T15:06:32.285Z,38.50
2023-06-30T15:08:59.149Z,38.52
2023-06-30T15:11:25.931Z,38.26
2023-06-30T15:13:52.902Z,38.52
2023-06-30T15:16:19.834Z,38.89
2023-06-30T15:18:46.839Z,38.69
2023-06-30T15:21:13.736Z,39.35
2023-06-30T15:23:40.536Z,39.48
2023-06-30T15:26:07.496Z,39.81
2023-06-30T15:28:34.685Z,39.71
2023-06-30T15:31:01.600Z,40.00
2023-06-30T15:33:28.612Z,39.85
2023-06-30T15:35:56.548Z,40.01
2023-06-30T15:38:23.272Z,39.97
2023-06-30T15:40:52.990Z,40.32
2023-06-30T15:43:23.300Z,39.99
2023-06-30T15:45:52.236Z,40.60
2023-06-30T15:48:19.257Z,40.57
2023-06-30T15:50:47.488Z,40.55
2023-06-30T15:53:14.814Z,40.73
2023-06-30T15:55:43.118Z,40.68
2023-06-30T15:58:10.326Z,40.66
2023-06-30T16:00:37.212Z,40.72
2023-06-30T16:03:04.410Z,40.59
2023-06-30T16:05:31.503Z,40.92
2023-06-30T16:07:58.628Z,41.06
2023-06-30T16:10:25.475Z,41.08
2023-06-30T16:12:52.290Z,41.03
2023-06-30T16:15:19.330Z,40.97
2023-06-30T16:17:46.207Z,40.81
2023-06-30T16:20:13.118Z,41.05
2023-06-30T16:22:40.076Z,40.95
2023-06-30T16:25:07.230Z,40.86
2023-06-30T16:27:34.128Z,40.72
2023-06-30T16:30:23.864Z,39.61
2023-06-30T16:32:53.407Z,40.78
2023-06-30T16:35:20.958Z,40.72
2023-06-30T16:37:47.843Z,40.37
2023-06-30T16:40:14.785Z,40.82
2023-06-30T16:42:42.276Z,40.91
2023-06-30T16:45:09.814Z,40.49
2023-06-30T16:47:37.388Z,40.64
2023-06-30T16:50:05.178Z,40.76
2023-06-30T16:52:36.733Z,40.10
2023-06-30T16:55:04.568Z,40.01
2023-06-30T16:57:32.166Z,40.13
2023-06-30T17:00:02.029Z,39.89
2023-06-30T17:02:29.171Z,40.24
2023-06-30T17:04:56.289Z,40.33
2023-06-30T17:07:23.158Z,40.66
2023-06-30T17:09:50.227Z,40.30
2023-06-30T17:12:17.575Z,41.03
2023-06-30T17:14:44.607Z,41.73
2023-06-30T17:17:12.987Z,42.48
2023-06-30T17:19:39.956Z,42.06
2023-06-30T17:22:06.891Z,43.41
2023-06-30T17:24:33.900Z,43.39
2023-06-30T17:27:00.662Z,43.78
2023-06-30T17:29:27.623Z,43.94
2023-06-30T17:31:54.624Z,45.18
2023-06-30T17:34:21.666Z,46.10
2023-06-30T17:36:48.580Z,46.97
2023-06-30T17:39:15.360Z,47.75
2023-06-30T17:41:42.157Z,47.51
2023-06-30T17:44:09.145Z,47.72
2023-06-30T17:46:36.229Z,48.19
2023-06-30T17:49:23.098Z,48.44
2023-06-30T17:51:51.248Z,49.17
2023-06-30T17:54:20.237Z,49.65
2023-06-30T17:56:48.976Z,50.16
2023-06-30T17:59:16.001Z,50.42
2023-06-30T18:01:43.993Z,50.83
2023-06-30T18:04:11.271Z,51.33
2023-06-30T18:06:40.192Z,51.73
2023-06-30T18:09:07.267Z,52.13
2023-06-30T18:11:34.289Z,52.30
2023-06-30T18:14:01.083Z,52.73
2023-06-30T18:16:29.512Z,52.98
2023-06-30T18:18:56.352Z,53.41
2023-06-30T18:21:23.207Z,53.48
2023-06-30T18:23:50.157Z,53.80
2023-06-30T18:26:17.009Z,53.83
2023-06-30T18:28:44.068Z,54.17
2023-06-30T18:31:10.842Z,54.29
2023-06-30T18:33:37.706Z,54.44
2023-06-30T18:36:04.598Z,54.53
2023-06-30T18:38:31.399Z,54.72
2023-06-30T18:40:58.384Z,54.62
2023-06-30T18:43:25.220Z,54.94
2023-06-30T18:45:52.166Z,55.06
2023-06-30T18:48:18.985Z,55.16
2023-06-30T18:50:45.940Z,55.39
2023-06-30T18:53:12.718Z,55.23
2023-06-30T18:55:39.575Z,55.68
2023-06-30T18:58:06.372Z,55.81
2023-06-30T19:00:33.375Z,56.18
2023-06-30T19:03:00.611Z,56.50
2023-06-30T19:05:27.733Z,56.79
2023-06-30T19:07:54.632Z,57.04
2023-06-30T19:10:21.630Z,57.38
2023-06-30T19:12:48.504Z,57.78
2023-06-30T19:15:15.512Z,58.16
2023-06-30T19:17:43.557Z,58.81
2023-06-30T19:20:10.917Z,59.19
2023-06-30T19:22:37.803Z,59.25
2023-06-30T19:25:04.881Z,59.17
2023-06-30T19:27:31.798Z,59.28
2023-06-30T19:30:00.236Z,59.18
2023-06-30T19:32:27.214Z,59.35
2023-06-30T19:34:54.037Z,59.52
2023-06-30T19:37:21.009Z,59.28
2023-06-30T19:39:47.759Z,59.55
2023-06-30T19:42:14.743Z,59.20
2023-06-30T19:44:41.602Z,59.48
2023-06-30T19:47:08.428Z,59.59
2023-06-30T19:49:35.276Z,59.61
2023-06-30T19:52:02.173Z,59.75
2023-06-30T19:54:29.037Z,60.05
2023-06-30T19:56:55.922Z,60.39
2023-06-30T19:59:22.766Z,61.34
2023-06-30T20:01:49.918Z,61.63
2023-06-30T20:04:16.861Z,61.60
2023-06-30T20:06:43.704Z,61.46
2023-06-30T20:09:10.666Z,61.47
2023-06-30T20:11:37.651Z,61.47
2023-06-30T20:14:04.767Z,61.35
2023-06-30T20:16:31.941Z,61.67
2023-06-30T20:18:59.189Z,62.17
2023-06-30T20:21:26.439Z,63.62
2023-06-30T20:23:53.425Z,63.75
2023-06-30T20:26:20.538Z,65.24
2023-06-30T20:28:47.687Z,65.65
2023-06-30T20:31:14.870Z,64.88
2023-06-30T20:33:42.200Z,65.65
2023-06-30T20:36:09.460Z,65.66
2023-06-30T20:38:36.419Z,65.98
2023-06-30T20:41:04.285Z,65.59
2023-06-30T20:43:31.548Z,65.32
2023-06-30T20:45:58.495Z,65.06
2023-06-30T20:48:25.340Z,64.90
2023-06-30T20:50:52.410Z,64.82
2023-06-30T20:53:19.568Z,65.55
2023-06-30T20:55:46.818Z,65.98
2023-06-30T20:58:13.677Z,65.93
2023-06-30T21:00:40.783Z,65.76
2023-06-30T21:03:07.726Z,65.63
2023-06-30T21:05:34.923Z,65.47
2023-06-30T21:08:01.977Z,65.51
2023-06-30T21:10:28.928Z,65.56
2023-06-30T21:13:00.107Z,66.19
2023-06-30T21:15:30.104Z,66.34
2023-06-30T21:17:57.386Z,66.29
2023-06-30T21:20:24.410Z,66.23
2023-06-30T21:22:51.463Z,66.89
2023-06-30T21:25:18.619Z,67.27
2023-06-30T21:27:45.574Z,66.83
2023-06-30T21:30:13.232Z,66.30
2023-06-30T21:32:40.425Z,66.32
2023-06-30T21:35:07.614Z,66.28
2023-06-30T21:37:34.502Z,66.13
2023-06-30T21:40:01.578Z,66.21
2023-06-30T21:42:28.706Z,66.41
2023-06-30T21:44:55.659Z,66.65
2023-06-30T21:47:22.546Z,67.98
2023-06-30T21:49:49.682Z,67.45
2023-06-30T21:52:16.919Z,67.07
2023-06-30T21:54:48.444Z,67.15
2023-06-30T21:57:16.660Z,67.28
2023-06-30T21:59:43.707Z,67.98
2023-06-30T22:02:10.957Z,67.46
2023-06-30T22:04:38.262Z,67.79
2023-06-30T22:07:05.391Z,67.71
2023-06-30T22:09:33.679Z,67.78
2023-06-30T22:12:00.612Z,68.51
2023-06-30T22:14:27.883Z,69.09
2023-06-30T22:16:54.921Z,68.72
2023-06-30T22:19:22.188Z,68.33
2023-06-30T22:21:49.284Z,68.07
2023-06-30T22:24:16.395Z,67.88
2023-06-30T22:26:43.448Z,67.97
2023-06-30T22:29:10.393Z,68.13
2023-06-30T22:31:37.572Z,69.12
2023-06-30T22:34:04.708Z,69.76
2023-06-30T22:36:31.661Z,69.70
2023-06-30T22:38:58.717Z,69.91
2023-06-30T22:41:26.284Z,70.80
2023-06-30T22:43:53.107Z,70.78
2023-06-30T22:46:20.081Z,71.05
2023-06-30T22:48:47.033Z,71.32
2023-06-30T22:51:15.824Z,71.44
2023-06-30T22:53:42.926Z,71.10
2023-06-30T22:56:09.846Z,71.51
2023-06-30T22:58:36.783Z,71.62
2023-06-30T23:01:06.107Z,72.05
2023-06-30T23:03:33.204Z,71.84
2023-06-30T23:06:00.256Z,71.87
2023-06-30T23:08:27.348Z,71.64
2023-06-30T23:10:54.408Z,71.31
2023-06-30T23:13:21.394Z,71.31
2023-06-30T23:15:48.920Z,71.76
2023-06-30T23:18:19.866Z,72.83
2023-06-30T23:20:47.775Z,72.34
2023-06-30T23:23:15.299Z,72.33
2023-06-30T23:25:42.657Z,72.17
2023-06-30T23:28:09.809Z,71.75
2023-06-30T23:30:37.166Z,71.46
2023-06-30T23:33:04.616Z,71.84
2023-06-30T23:35:31.997Z,71.56
2023-06-30T23:37:58.945Z,71.57
2023-06-30T23:40:25.995Z,71.01
2023-06-30T23:42:52.928Z,71.48
2023-06-30T23:45:20.056Z,72.23
2023-06-30T23:47:47.152Z,72.19
2023-06-30T23:50:15.033Z,72.53
2023-06-30T23:52:42.082Z,72.42
2023-06-30T23:55:09.344Z,71.91
2023-06-30T23:57:36.197Z,71.93
